Time;durP1;ratioP1;P1;durP2;ratioP2;P2;SDS_P1;SDS_P2;PMS_P1;PMS_P2;Temp;Humidity;BMP_temperature;BMP_pressure;BME280_temperature;BME280_humidity;BME280_pressure;Samples;Min_cycle;Max_cycle;Signal;HPM_P1;HPM_P2
2023/01/08 00:00:24;;;;;;;4.57;3.17;;;9.20;99.90;;;;;;5047073;28;20651;-83
2023/01/08 00:02:50;;;;;;;4.18;3.08;;;9.20;99.90;;;;;;5048426;28;20041;-82
2023/01/08 00:05:16;;;;;;;4.50;3.10;;;9.20;99.90;;;;;;5045358;28;20041;-83
2023/01/08 00:07:41;;;;;;;10.20;3.20;;;9.20;99.90;;;;;;5051345;28;20124;-81
2023/01/08 00:10:07;;;;;;;4.85;3.30;;;9.30;99.90;;;;;;5051964;28;20040;-81
2023/01/08 00:12:33;;;;;;;4.47;2.90;;;9.30;99.90;;;;;;5036032;28;20160;-81
2023/01/08 00:14:58;;;;;;;5.05;3.00;;;9.40;99.90;;;;;;5052358;28;20068;-81
2023/01/08 00:17:24;;;;;;;5.03;3.03;;;9.40;99.90;;;;;;5049787;28;20077;-81
2023/01/08 00:19:49;;;;;;;4.57;2.70;;;9.40;99.90;;;;;;5049628;28;20414;-81
2023/01/08 00:22:15;;;;;;;4.03;2.70;;;9.40;99.90;;;;;;5045905;28;20047;-82
2023/01/08 00:24:41;;;;;;;4.30;2.92;;;9.40;99.90;;;;;;5052003;28;20096;-82
2023/01/08 00:27:06;;;;;;;4.93;2.88;;;9.40;99.90;;;;;;5051888;28;20167;-81
2023/01/08 00:29:32;;;;;;;4.65;2.85;;;9.40;99.90;;;;;;5050979;28;20052;-82
2023/01/08 00:31:57;;;;;;;3.95;2.80;;;9.40;99.90;;;;;;5051003;28;20036;-81
2023/01/08 00:34:23;;;;;;;3.75;2.80;;;9.40;99.90;;;;;;5049882;28;20483;-82
2023/01/08 00:36:48;;;;;;;4.43;2.90;;;9.40;99.90;;;;;;5052162;28;20052;-82
2023/01/08 00:39:14;;;;;;;4.95;3.17;;;9.40;99.90;;;;;;5050318;28;20041;-81
2023/01/08 00:41:43;;;;;;;5.15;2.97;;;9.40;99.90;;;;;;5051601;28;20502;-82
2023/01/08 00:44:08;;;;;;;6.63;2.90;;;9.40;99.90;;;;;;5042615;28;20055;-82
2023/01/08 00:46:34;;;;;;;4.78;3.20;;;9.40;99.90;;;;;;5027632;28;20036;-82
2023/01/08 00:49:00;;;;;;;3.50;2.92;;;9.40;99.90;;;;;;5050757;28;20564;-82
2023/01/08 00:51:25;;;;;;;4.95;2.97;;;9.30;99.90;;;;;;5051482;28;20040;-82
2023/01/08 00:53:51;;;;;;;5.47;2.88;;;9.40;99.90;;;;;;5043879;28;20450;-83
2023/01/08 00:56:16;;;;;;;5.30;3.10;;;9.30;99.90;;;;;;5051175;28;20041;-82
2023/01/08 00:58:42;;;;;;;3.58;2.80;;;9.30;99.90;;;;;;5049141;28;20710;-81
2023/01/08 01:01:10;;;;;;;5.63;3.03;;;9.30;99.90;;;;;;5032752;28;20037;-82
2023/01/08 01:03:35;;;;;;;3.95;2.90;;;9.30;99.90;;;;;;5047209;28;20101;-82
2023/01/08 01:06:03;;;;;;;4.03;2.67;;;9.30;99.90;;;;;;5050734;28;20069;-82
2023/01/08 01:08:29;;;;;;;3.53;2.65;;;9.30;99.90;;;;;;5026982;28;20406;-81
2023/01/08 01:10:54;;;;;;;4.07;2.50;;;9.30;99.90;;;;;;5048412;28;20037;-81
2023/01/08 01:13:20;;;;;;;4.82;2.60;;;9.30;99.90;;;;;;5044103;28;20029;-82
2023/01/08 01:15:55;;;;;;;6.65;2.33;;;9.40;99.90;;;;;;5044527;28;20090;-81
2023/01/08 01:18:20;;;;;;;4.40;2.40;;;9.40;99.90;;;;;;5050171;28;20044;-81
2023/01/08 01:20:46;;;;;;;4.88;2.10;;;9.30;99.90;;;;;;5050862;28;20044;-82
2023/01/08 01:23:11;;;;;;;4.13;2.05;;;9.30;99.90;;;;;;5047056;28;20041;-83
2023/01/08 01:25:37;;;;;;;6.03;2.13;;;9.30;99.90;;;;;;5049440;28;20414;-82
2023/01/08 01:28:02;;;;;;;3.35;2.10;;;9.30;99.90;;;;;;5051408;28;20045;-82
2023/01/08 01:30:28;;;;;;;5.47;2.45;;;9.30;99.90;;;;;;5045651;28;20033;-82
2023/01/08 01:32:54;;;;;;;4.13;2.28;;;9.30;99.90;;;;;;5046431;28;20132;-81
2023/01/08 01:35:19;;;;;;;3.47;2.40;;;9.30;99.90;;;;;;5050970;28;20071;-83
2023/01/08 01:37:45;;;;;;;4.55;2.28;;;9.30;99.90;;;;;;5049935;28;20136;-81
2023/01/08 01:40:10;;;;;;;5.07;2.70;;;9.30;99.90;;;;;;5051490;28;20047;-81
2023/01/08 01:42:39;;;;;;;4.05;2.53;;;9.30;99.90;;;;;;5050440;28;20533;-81
2023/01/08 01:45:23;;;;;;;5.70;2.95;;;9.30;99.90;;;;;;5049445;28;20042;-82
2023/01/08 01:47:54;;;;;;;5.63;3.00;;;9.30;99.90;;;;;;5034730;28;20433;-82
2023/01/08 01:50:28;;;;;;;5.60;2.75;;;9.20;99.90;;;;;;5050049;28;20126;-80
2023/01/08 01:53:00;;;;;;;;;;;9.20;99.90;;;;;;5049430;28;20041;-81
2023/01/08 01:55:27;;;;;;;3.83;2.50;;;9.20;99.90;;;;;;5042802;28;20268;-82
2023/01/08 01:58:07;;;;;;;10.10;2.63;;;9.10;99.90;;;;;;5048723;28;20033;-81
2023/01/08 02:00:34;;;;;;;3.40;2.33;;;9.10;99.90;;;;;;5046670;28;20068;-82
2023/01/08 02:03:00;;;;;;;8.95;3.35;;;9.10;99.90;;;;;;5033422;28;20506;-82
2023/01/08 02:05:43;;;;;;;5.13;2.40;;;9.10;99.90;;;;;;5044422;28;20047;-82
2023/01/08 02:08:14;;;;;;;5.55;2.17;;;9.00;99.90;;;;;;5049611;28;20043;-82
2023/01/08 02:10:54;;;;;;;5.38;1.90;;;9.00;99.90;;;;;;5033745;28;20068;-81
2023/01/08 02:13:26;;;;;;;5.80;2.53;;;8.90;99.90;;;;;;5049837;28;20124;-82
2023/01/08 02:16:07;;;;;;;5.05;1.90;;;9.00;99.90;;;;;;5045321;28;20029;-82
2023/01/08 02:18:57;;;;;;;7.07;2.03;;;8.90;99.90;;;;;;5048944;28;20037;-81
2023/01/08 02:21:51;;;;;;;6.55;2.13;;;8.90;99.90;;;;;;5025288;28;20049;-82
2023/01/08 02:24:32;;;;;;;6.53;2.20;;;8.90;99.90;;;;;;5050250;28;20041;-81
2023/01/08 02:27:00;;;;;;;6.45;1.80;;;8.80;99.90;;;;;;5044222;28;20146;-81
2023/01/08 02:29:27;;;;;;;7.18;1.70;;;8.80;99.90;;;;;;5048081;28;20087;-81
2023/01/08 02:31:54;;;;;;;6.63;2.05;;;8.80;99.90;;;;;;5047466;28;20441;-83
2023/01/08 02:34:19;;;;;;;6.95;1.52;;;8.70;99.90;;;;;;5049194;28;20069;-82
2023/01/08 02:36:49;;;;;;;7.40;2.00;;;8.70;99.90;;;;;;5034980;28;20067;-82
2023/01/08 02:39:26;;;;;;;6.20;1.40;;;8.70;99.90;;;;;;5048425;28;20045;-82
2023/01/08 02:42:04;;;;;;;5.95;1.60;;;8.60;99.90;;;;;;5047678;28;20070;-82
2023/01/08 02:44:40;;;;;;;6.82;1.60;;;8.60;99.90;;;;;;5038807;28;20045;-82
2023/01/08 02:47:10;;;;;;;7.88;1.60;;;8.50;99.90;;;;;;5049445;28;20045;-82
2023/01/08 02:49:40;;;;;;;8.30;1.77;;;8.50;99.90;;;;;;5043022;28;20090;-82
2023/01/08 02:52:07;;;;;;;8.27;1.60;;;8.40;99.90;;;;;;5048424;28;20040;-82
2023/01/08 02:54:34;;;;;;;8.88;1.70;;;8.40;99.90;;;;;;5031434;28;20076;-82
2023/01/08 02:57:13;;;;;;;7.97;1.50;;;8.40;99.90;;;;;;5047389;28;20072;-82
2023/01/08 02:59:40;;;;;;;9.60;1.65;;;8.40;99.90;;;;;;5043535;28;20131;-82
2023/01/08 03:02:07;;;;;;;9.60;1.70;;;8.30;99.90;;;;;;5042983;28;20099;-82
2023/01/08 03:04:43;;;;;;;11.57;2.05;;;8.30;99.90;;;;;;5032877;28;20090;-82
2023/01/08 03:07:09;;;;;;;11.07;1.70;;;8.30;99.90;;;;;;5050934;28;20526;-80
2023/01/08 03:09:34;;;;;;;10.00;2.20;;;8.30;99.90;;;;;;5049815;28;20048;-81
2023/01/08 03:12:16;;;;;;;10.15;2.08;;;8.30;99.90;;;;;;5052214;28;20037;-82
2023/01/08 03:14:58;;;;;;;8.07;1.88;;;8.30;99.90;;;;;;5045156;28;20072;-82
2023/01/08 03:17:34;;;;;;;5.97;1.50;;;8.30;99.90;;;;;;5053751;28;20044;-82
2023/01/08 03:20:05;;;;;;;9.65;1.75;;;8.30;99.90;;;;;;5046555;28;20033;-82
2023/01/08 03:22:32;;;;;;;6.85;1.40;;;8.20;99.90;;;;;;5051917;28;20091;-82
2023/01/08 03:24:58;;;;;;;6.43;1.60;;;8.20;99.90;;;;;;5036543;28;20498;-82
2023/01/08 03:27:27;;;;;;;7.10;1.77;;;8.20;99.90;;;;;;5051061;28;20037;-82
2023/01/08 03:29:57;;;;;;;6.07;1.80;;;8.10;99.90;;;;;;5036704;28;20052;-82
2023/01/08 03:32:24;;;;;;;5.75;1.42;;;8.10;99.90;;;;;;5051542;28;20037;-82
2023/01/08 03:34:52;;;;;;;5.88;1.45;;;8.10;99.90;;;;;;5029958;28;20112;-82
2023/01/08 03:37:23;;;;;;;10.07;1.92;;;8.10;99.90;;;;;;5051673;28;20048;-83
2023/01/08 03:39:59;;;;;;;8.90;2.10;;;8.10;99.90;;;;;;5047861;28;20053;-82
2023/01/08 03:42:27;;;;;;;7.43;1.85;;;8.10;99.90;;;;;;5052001;28;20339;-83
2023/01/08 03:44:53;;;;;;;6.32;1.60;;;8.10;99.90;;;;;;5053652;28;20037;-82
2023/01/08 03:47:21;;;;;;;12.15;2.10;;;8.10;99.90;;;;;;5027205;28;20526;-82
2023/01/08 03:49:49;;;;;;;5.32;1.58;;;8.00;99.90;;;;;;5035731;28;20118;-82
2023/01/08 03:52:26;;;;;;;10.27;1.60;;;8.00;99.90;;;;;;5047209;28;20037;-82
2023/01/08 03:54:52;;;;;;;8.05;1.80;;;8.00;99.90;;;;;;5050509;28;20037;-82
2023/01/08 03:57:18;;;;;;;7.93;2.17;;;8.00;99.90;;;;;;5052475;28;20041;-82
2023/01/08 03:59:44;;;;;;;5.63;1.75;;;7.90;99.90;;;;;;5028041;28;20051;-81
2023/01/08 04:02:10;;;;;;;6.25;1.67;;;7.90;99.90;;;;;;5042917;28;20033;-81
2023/01/08 04:04:36;;;;;;;9.80;1.95;;;7.90;99.90;;;;;;5035609;28;20493;-81
2023/01/08 04:07:02;;;;;;;6.65;1.70;;;7.90;99.90;;;;;;5045830;28;20041;-82
2023/01/08 04:09:27;;;;;;;5.28;1.67;;;7.80;99.90;;;;;;5046386;28;20443;-82
2023/01/08 04:11:53;;;;;;;6.95;2.08;;;7.80;99.90;;;;;;5052399;28;20048;-82
2023/01/08 04:14:18;;;;;;;6.00;1.67;;;7.80;99.90;;;;;;5050472;28;20048;-82
2023/01/08 04:16:44;;;;;;;6.40;1.77;;;7.80;99.90;;;;;;5052109;28;20056;-82
2023/01/08 04:19:11;;;;;;;6.35;1.60;;;7.70;99.90;;;;;;5034190;28;20376;-82
2023/01/08 04:21:37;;;;;;;6.68;1.67;;;7.70;99.90;;;;;;5052236;28;20037;-81
2023/01/08 04:24:03;;;;;;;6.50;1.95;;;7.70;99.90;;;;;;5045219;28;20124;-82
2023/01/08 04:26:29;;;;;;;6.13;1.80;;;7.70;99.90;;;;;;5052589;28;20104;-82
2023/01/08 04:28:54;;;;;;;6.05;2.03;;;7.70;99.90;;;;;;5034597;28;20178;-82
2023/01/08 04:31:20;;;;;;;7.32;1.70;;;7.70;99.90;;;;;;5027429;28;20461;-82
2023/01/08 04:33:45;;;;;;;5.35;1.75;;;7.70;99.90;;;;;;5040519;28;20048;-82
2023/01/08 04:36:11;;;;;;;7.63;2.35;;;7.70;99.90;;;;;;5034988;28;20115;-82
2023/01/08 04:38:37;;;;;;;6.70;1.95;;;7.70;99.90;;;;;;5050778;28;20082;-82
2023/01/08 04:41:03;;;;;;;7.35;2.20;;;7.70;99.90;;;;;;5046282;28;20033;-82
2023/01/08 04:43:30;;;;;;;4.95;2.05;;;7.70;99.90;;;;;;5049616;28;20052;-82
2023/01/08 04:46:00;;;;;;;7.25;2.28;;;7.70;99.90;;;;;;5051232;28;20119;-82
2023/01/08 04:48:27;;;;;;;5.00;2.30;;;7.70;99.90;;;;;;5045623;28;20040;-81
2023/01/08 04:50:52;;;;;;;6.45;2.80;;;7.70;99.90;;;;;;5033040;28;20037;-82
2023/01/08 04:53:18;;;;;;;5.22;2.58;;;7.70;99.90;;;;;;5050124;28;20033;-81
2023/01/08 04:55:43;;;;;;;7.53;2.50;;;7.70;99.90;;;;;;5032681;28;20083;-82
2023/01/08 04:58:09;;;;;;;5.57;2.63;;;7.70;99.90;;;;;;5047442;28;20047;-82
2023/01/08 05:00:35;;;;;;;11.35;3.25;;;7.70;99.90;;;;;;5018753;28;20040;-82
2023/01/08 05:03:00;;;;;;;6.85;2.50;;;7.70;99.90;;;;;;5029120;28;20064;-82
2023/01/08 05:05:26;;;;;;;6.68;2.78;;;7.70;99.90;;;;;;5047530;28;20670;-82
2023/01/08 05:07:52;;;;;;;6.15;2.40;;;7.70;99.90;;;;;;5050781;28;20114;-82
2023/01/08 05:10:17;;;;;;;4.85;2.70;;;7.70;99.90;;;;;;5050215;28;20037;-82
2023/01/08 05:12:43;;;;;;;7.97;2.67;;;7.70;99.90;;;;;;5046669;28;20052;-82
2023/01/08 05:15:08;;;;;;;7.20;2.67;;;7.70;99.90;;;;;;5049848;28;20075;-81
2023/01/08 05:17:34;;;;;;;6.22;2.63;;;7.70;99.90;;;;;;5049397;28;20044;-82
2023/01/08 05:19:59;;;;;;;5.13;2.53;;;7.70;99.90;;;;;;5040483;28;20045;-82
2023/01/08 05:22:25;;;;;;;6.30;2.75;;;7.70;99.90;;;;;;5040010;28;20047;-82
2023/01/08 05:24:50;;;;;;;4.43;2.45;;;7.70;99.90;;;;;;5050537;28;20151;-82
2023/01/08 05:27:16;;;;;;;7.45;2.80;;;7.70;99.90;;;;;;5051351;28;20047;-82
2023/01/08 05:29:42;;;;;;;6.75;2.75;;;7.80;99.90;;;;;;5050113;28;20121;-81
2023/01/08 05:32:14;;;;;;;6.45;2.80;;;7.80;99.90;;;;;;5049463;28;20037;-82
2023/01/08 05:34:39;;;;;;;5.90;2.50;;;7.80;99.90;;;;;;5044737;28;20056;-82
2023/01/08 05:37:05;;;;;;;4.93;2.40;;;7.80;99.90;;;;;;5044114;28;20041;-82
2023/01/08 05:39:30;;;;;;;5.07;2.53;;;7.90;99.90;;;;;;5049734;28;20490;-81
2023/01/08 05:41:56;;;;;;;5.75;2.45;;;7.90;99.90;;;;;;5046581;28;20044;-82
2023/01/08 05:44:21;;;;;;;6.30;2.50;;;7.90;99.90;;;;;;5047484;28;20052;-82
2023/01/08 05:46:47;;;;;;;4.53;2.47;;;7.90;99.90;;;;;;5044380;28;20044;-82
2023/01/08 05:49:13;;;;;;;6.15;2.25;;;7.90;99.90;;;;;;5049271;28;20123;-82
2023/01/08 05:51:38;;;;;;;6.00;2.33;;;7.90;99.90;;;;;;5030734;28;20167;-82
2023/01/08 05:54:04;;;;;;;9.38;2.65;;;7.90;99.90;;;;;;5038738;28;20056;-82
2023/01/08 05:56:29;;;;;;;6.68;2.20;;;7.90;99.90;;;;;;5048986;28;20040;-82
2023/01/08 05:58:55;;;;;;;7.13;2.10;;;7.90;99.90;;;;;;5048014;28;20037;-83
2023/01/08 06:01:21;;;;;;;4.68;2.58;;;7.90;99.90;;;;;;5042516;28;20121;-82
2023/01/08 06:03:46;;;;;;;5.95;2.20;;;7.90;99.90;;;;;;5046014;28;20040;-82
2023/01/08 06:06:12;;;;;;;7.72;2.10;;;7.90;99.90;;;;;;5031501;28;20032;-82
2023/01/08 06:08:38;;;;;;;3.10;1.70;;;7.90;99.90;;;;;;5035630;28;20063;-82
2023/01/08 06:11:06;;;;;;;5.95;2.17;;;7.90;99.90;;;;;;5050309;28;20037;-82
2023/01/08 06:13:33;;;;;;;9.05;1.80;;;7.90;99.90;;;;;;5064963;28;20033;-82
2023/01/08 06:15:59;;;;;;;3.65;1.75;;;7.90;99.90;;;;;;5049460;28;20448;-82
2023/01/08 06:18:26;;;;;;;5.40;1.70;;;7.80;99.90;;;;;;5045879;28;20127;-82
2023/01/08 06:20:51;;;;;;;8.43;2.25;;;7.90;99.90;;;;;;5028173;28;20040;-82
2023/01/08 06:23:17;;;;;;;5.47;1.70;;;7.90;99.90;;;;;;5050013;28;20041;-82
2023/01/08 06:25:43;;;;;;;4.50;1.63;;;7.90;99.90;;;;;;5046069;28;20053;-82
2023/01/08 06:28:08;;;;;;;3.88;1.77;;;7.90;99.90;;;;;;5049601;28;20029;-82
2023/01/08 06:30:34;;;;;;;4.13;1.83;;;7.90;99.90;;;;;;5050428;28;20037;-82
2023/01/08 06:33:00;;;;;;;7.25;2.05;;;7.90;99.90;;;;;;5043351;28;20037;-82
2023/01/08 06:35:26;;;;;;;4.18;1.77;;;8.00;99.90;;;;;;5047343;28;20424;-82
2023/01/08 06:37:54;;;;;;;5.10;1.85;;;7.90;99.90;;;;;;5046474;28;20047;-82
2023/01/08 06:40:21;;;;;;;5.03;2.00;;;7.90;99.90;;;;;;5050489;28;20041;-81
2023/01/08 06:42:46;;;;;;;5.38;2.30;;;7.90;99.90;;;;;;5051172;28;20045;-82
2023/01/08 06:45:12;;;;;;;3.80;2.13;;;7.80;99.90;;;;;;5051859;28;20044;-82
2023/01/08 06:47:37;;;;;;;5.03;2.28;;;7.80;99.90;;;;;;5044219;28;20514;-82
2023/01/08 06:50:05;;;;;;;6.78;2.55;;;7.80;99.90;;;;;;5053513;28;20045;-82
2023/01/08 06:52:30;;;;;;;4.15;2.30;;;7.70;99.90;;;;;;5054919;28;20043;-82
2023/01/08 06:54:56;;;;;;;5.38;2.28;;;7.70;99.90;;;;;;5051522;28;20399;-82
2023/01/08 06:57:21;;;;;;;5.90;2.67;;;7.60;99.90;;;;;;5048869;28;20047;-82
2023/01/08 06:59:47;;;;;;;5.97;2.65;;;7.60;99.90;;;;;;5045237;28;20049;-81
2023/01/08 07:02:14;;;;;;;3.47;2.20;;;7.60;99.90;;;;;;5048416;28;20051;-83
2023/01/08 07:04:39;;;;;;;5.05;2.78;;;7.50;99.90;;;;;;5052690;28;20037;-82
2023/01/08 07:07:05;;;;;;;3.72;2.40;;;7.50;99.90;;;;;;5048598;28;20064;-83
2023/01/08 07:09:33;;;;;;;7.07;3.08;;;7.50;99.90;;;;;;5046336;28;20029;-83
2023/01/08 07:11:58;;;;;;;4.63;2.78;;;7.50;99.90;;;;;;5044372;28;20113;-83
2023/01/08 07:14:24;;;;;;;9.30;2.90;;;7.50;99.90;;;;;;5052250;28;20124;-82
2023/01/08 07:16:49;;;;;;;4.63;2.95;;;7.50;99.90;;;;;;5045890;28;20097;-81
2023/01/08 07:19:15;;;;;;;6.82;2.83;;;7.50;99.90;;;;;;5027674;28;20028;-82
2023/01/08 07:21:40;;;;;;;7.18;3.10;;;7.50;99.90;;;;;;5070203;28;20042;-83
2023/01/08 07:24:06;;;;;;;7.72;2.70;;;7.50;99.90;;;;;;5061501;28;20124;-82
2023/01/08 07:26:32;;;;;;;5.28;2.38;;;7.50;99.90;;;;;;5053190;28;20037;-83
2023/01/08 07:28:58;;;;;;;5.35;2.30;;;7.40;99.90;;;;;;5047729;28;20124;-84
2023/01/08 07:31:23;;;;;;;5.20;2.50;;;7.40;99.90;;;;;;5033819;28;20069;-83
2023/01/08 07:33:49;;;;;;;9.57;2.42;;;7.40;99.90;;;;;;5038211;28;20045;-82
2023/01/08 07:36:15;;;;;;;4.00;2.15;;;7.40;99.90;;;;;;5043839;28;20550;-83
2023/01/08 07:38:41;;;;;;;7.93;2.70;;;7.40;99.90;;;;;;5039659;28;20045;-82
2023/01/08 07:41:07;;;;;;;5.47;2.30;;;7.30;99.90;;;;;;5043863;28;20123;-83
2023/01/08 07:43:34;;;;;;;5.68;2.38;;;7.40;99.90;;;;;;5043732;28;20492;-83
2023/01/08 07:46:02;;;;;;;6.55;2.78;;;7.30;99.90;;;;;;5042693;28;20056;-83
2023/01/08 07:48:28;;;;;;;7.15;2.33;;;7.30;99.90;;;;;;5039362;28;20087;-83
2023/01/08 07:50:53;;;;;;;7.97;2.50;;;7.30;99.90;;;;;;5046207;28;20045;-82
2023/01/08 07:53:19;;;;;;;9.43;2.50;;;7.30;99.90;;;;;;5032857;28;20037;-82
2023/01/08 07:55:46;;;;;;;6.00;2.80;;;7.20;99.90;;;;;;5045371;28;20399;-83
2023/01/08 07:58:13;;;;;;;6.60;2.75;;;7.20;99.90;;;;;;5045172;28;20168;-82
2023/01/08 08:00:39;;;;;;;7.30;3.08;;;7.20;99.90;;;;;;5048676;28;20421;-83
2023/01/08 08:03:06;;;;;;;4.55;2.72;;;7.20;99.90;;;;;;5051454;28;20052;-84
2023/01/08 08:05:32;;;;;;;7.60;3.10;;;7.20;99.90;;;;;;5051018;28;20029;-83
2023/01/08 08:07:58;;;;;;;7.53;3.40;;;7.10;99.90;;;;;;5031371;28;20049;-82
2023/01/08 08:10:23;;;;;;;8.25;3.08;;;7.10;99.90;;;;;;5047836;28;20463;-83
2023/01/08 08:12:49;;;;;;;6.80;3.15;;;7.10;99.90;;;;;;5035194;28;20037;-83
2023/01/08 08:15:14;;;;;;;6.32;3.00;;;7.20;99.90;;;;;;5049497;28;20460;-85
2023/01/08 08:17:44;;;;;;;5.80;2.92;;;7.10;99.90;;;;;;5047277;28;20036;-83
2023/01/08 08:20:10;;;;;;;5.53;2.83;;;7.10;99.90;;;;;;5051452;28;20434;-83
2023/01/08 08:22:35;;;;;;;7.80;3.00;;;7.10;99.90;;;;;;5049735;28;20043;-83
2023/01/08 08:25:01;;;;;;;12.18;3.33;;;7.10;99.90;;;;;;5046958;28;20090;-84
2023/01/08 08:27:26;;;;;;;6.45;2.60;;;7.10;99.90;;;;;;5044766;28;20079;-84
2023/01/08 08:29:52;;;;;;;6.80;3.08;;;7.10;99.90;;;;;;5042903;28;20089;-82
2023/01/08 08:32:17;;;;;;;8.70;2.40;;;7.10;99.90;;;;;;5049105;28;20044;-84
2023/01/08 08:34:43;;;;;;;5.30;2.15;;;7.10;99.90;;;;;;5045689;28;20372;-83
2023/01/08 08:37:08;;;;;;;7.90;2.97;;;7.10;99.90;;;;;;5030202;28;20036;-84
2023/01/08 08:39:35;;;;;;;7.25;2.40;;;7.10;99.90;;;;;;5049339;28;20128;-83
2023/01/08 08:42:01;;;;;;;5.80;2.35;;;7.20;99.90;;;;;;5051234;28;20637;-83
2023/01/08 08:44:26;;;;;;;6.03;2.20;;;7.20;99.90;;;;;;5050054;28;20068;-83
2023/01/08 08:46:52;;;;;;;5.95;2.10;;;7.20;99.90;;;;;;5040330;28;20138;-83
2023/01/08 08:49:17;;;;;;;4.45;1.92;;;7.20;99.90;;;;;;5034443;28;20045;-83
2023/01/08 08:51:43;;;;;;;6.97;2.15;;;7.20;99.90;;;;;;5051760;28;20033;-82
2023/01/08 08:54:10;;;;;;;6.93;2.35;;;7.20;99.90;;;;;;5052245;28;20460;-82
2023/01/08 08:56:35;;;;;;;5.75;2.17;;;7.20;99.90;;;;;;5035149;28;20466;-82
2023/01/08 08:59:01;;;;;;;8.45;2.38;;;7.20;99.90;;;;;;5026819;28;20079;-82
2023/01/08 09:01:27;;;;;;;9.82;2.00;;;7.30;99.90;;;;;;5049097;28;20036;-83
2023/01/08 09:03:53;;;;;;;8.40;2.53;;;7.30;99.90;;;;;;5051269;28;20052;-83
2023/01/08 09:06:19;;;;;;;4.90;1.70;;;7.30;99.90;;;;;;5050087;28;20423;-83
2023/01/08 09:08:44;;;;;;;4.53;1.80;;;7.30;99.90;;;;;;5046906;28;20041;-82
2023/01/08 09:11:10;;;;;;;9.85;2.42;;;7.30;99.90;;;;;;5043804;28;20041;-82
2023/01/08 09:13:36;;;;;;;9.00;2.47;;;7.30;99.90;;;;;;5050250;28;20037;-82
2023/01/08 09:16:02;;;;;;;6.57;1.95;;;7.40;99.90;;;;;;5051227;28;20044;-83
2023/01/08 09:18:27;;;;;;;9.25;2.10;;;7.40;99.90;;;;;;5050662;28;20403;-82
2023/01/08 09:20:53;;;;;;;8.65;2.33;;;7.40;99.90;;;;;;5050921;28;20032;-83
2023/01/08 09:23:19;;;;;;;5.82;2.03;;;7.40;99.90;;;;;;5050316;28;20039;-83
2023/01/08 09:25:45;;;;;;;6.82;2.30;;;7.40;99.90;;;;;;5045442;28;20037;-83
2023/01/08 09:28:11;;;;;;;8.90;2.30;;;7.40;99.90;;;;;;5051100;28;20049;-83
2023/01/08 09:30:37;;;;;;;6.07;1.77;;;7.40;99.90;;;;;;5034362;28;20048;-83
2023/01/08 09:33:04;;;;;;;5.75;1.88;;;7.50;99.90;;;;;;5049293;28;20398;-83
2023/01/08 09:35:31;;;;;;;6.47;1.90;;;7.50;99.90;;;;;;5060210;28;20062;-83
2023/01/08 09:37:57;;;;;;;8.75;1.77;;;7.60;99.90;;;;;;5042513;28;20052;-83
2023/01/08 09:40:27;;;;;;;4.65;1.63;;;7.60;99.90;;;;;;5047332;28;20394;-82
2023/01/08 09:42:57;;;;;;;7.90;1.77;;;7.60;99.90;;;;;;5051315;28;20083;-83
2023/01/08 09:45:31;;;;;;;6.70;1.88;;;7.60;99.90;;;;;;5045892;28;20100;-83
2023/01/08 09:48:00;;;;;;;7.43;1.70;;;7.70;99.90;;;;;;5051662;28;20047;-82
2023/01/08 09:50:29;;;;;;;5.40;1.50;;;7.70;99.90;;;;;;5048005;28;20073;-83
2023/01/08 09:52:55;;;;;;;8.70;1.65;;;7.70;99.90;;;;;;5033527;28;20044;-83
2023/01/08 09:55:21;;;;;;;8.85;1.70;;;7.70;99.90;;;;;;5042928;28;20498;-82
2023/01/08 09:57:47;;;;;;;6.82;1.60;;;7.80;99.90;;;;;;5044410;28;20051;-83
2023/01/08 10:00:28;;;;;;;9.48;1.60;;;7.80;99.90;;;;;;5029228;28;20435;-83
2023/01/08 10:02:55;;;;;;;5.15;1.85;;;7.90;99.90;;;;;;5043008;28;20120;-82
2023/01/08 10:05:20;;;;;;;11.35;2.28;;;7.90;99.90;;;;;;5036027;28;20048;-82
2023/01/08 10:07:46;;;;;;;6.15;1.67;;;8.00;99.90;;;;;;5043202;28;20318;-83
2023/01/08 10:10:35;;;;;;;5.05;1.52;;;8.00;99.90;;;;;;5039153;28;20048;-83
2023/01/08 10:13:01;;;;;;;6.82;1.70;;;8.10;99.90;;;;;;5050411;28;20510;-83
2023/01/08 10:15:27;;;;;;;7.82;1.52;;;8.10;99.90;;;;;;5049285;28;20032;-83
2023/01/08 10:18:04;;;;;;;7.82;2.00;;;8.10;99.90;;;;;;5053214;28;20057;-83
2023/01/08 10:20:30;;;;;;;6.60;1.63;;;8.20;99.90;;;;;;5055273;28;20139;-82
2023/01/08 10:23:11;;;;;;;9.25;2.17;;;8.20;99.90;;;;;;5036778;28;20124;-83
2023/01/08 10:25:58;;;;;;;7.85;2.08;;;8.20;99.90;;;;;;5056070;28;20037;-82
2023/01/08 10:28:35;;;;;;;8.50;2.22;;;8.20;99.90;;;;;;5051654;28;20044;-83
2023/01/08 10:31:14;;;;;;;10.52;1.92;;;8.20;99.90;;;;;;5053168;28;20079;-84
2023/01/08 10:33:44;;;;;;;9.35;1.77;;;8.20;99.90;;;;;;5050758;28;20041;-82
2023/01/08 10:36:22;;;;;;;11.98;1.67;;;8.20;99.90;;;;;;5040359;28;20036;-82
2023/01/08 10:38:58;;;;;;;9.18;1.92;;;8.30;99.90;;;;;;5054690;28;20045;-83
2023/01/08 10:41:24;;;;;;;7.70;1.60;;;8.30;99.90;;;;;;5033542;28;20041;-82
2023/01/08 10:44:00;;;;;;;8.80;1.63;;;8.30;99.90;;;;;;5054809;28;20143;-83
2023/01/08 10:46:42;;;;;;;8.77;1.58;;;8.30;99.90;;;;;;5054082;28;20041;-83
2023/01/08 10:49:33;;;;;;;8.02;1.50;;;8.40;99.90;;;;;;5050283;28;20091;-84
2023/01/08 10:51:59;;;;;;;8.18;1.40;;;8.40;99.90;;;;;;5051742;28;20517;-82
2023/01/08 10:54:35;;;;;;;8.88;1.90;;;8.40;99.90;;;;;;5053706;28;20061;-83
2023/01/08 10:57:00;;;;;;;9.45;1.77;;;8.30;99.90;;;;;;5047411;28;20037;-83
2023/01/08 10:59:26;;;;;;;14.18;1.98;;;8.40;99.90;;;;;;5044489;28;20090;-83
2023/01/08 11:01:57;;;;;;;9.45;1.90;;;8.40;99.90;;;;;;5027819;28;20094;-82
2023/01/08 11:04:33;;;;;;;9.77;2.30;;;8.40;99.90;;;;;;5064784;28;20041;-83
2023/01/08 11:07:01;;;;;;;8.93;2.20;;;8.50;99.90;;;;;;5028641;28;20048;-83
2023/01/08 11:09:33;;;;;;;7.18;1.55;;;8.50;99.90;;;;;;5049150;28;20037;-83
2023/01/08 11:11:59;;;;;;;4.25;1.40;;;8.50;99.90;;;;;;5052036;28;20037;-83
2023/01/08 11:14:34;;;;;;;9.88;2.50;;;8.50;99.90;;;;;;5048960;28;20570;-83
2023/01/08 11:17:01;;;;;;;8.25;2.17;;;8.60;99.90;;;;;;5043089;28;20793;-84
2023/01/08 11:19:33;;;;;;;9.07;1.70;;;8.60;99.90;;;;;;5051177;28;20032;-83
2023/01/08 11:22:02;;;;;;;10.65;1.95;;;8.70;99.90;;;;;;5050078;28;20491;-83
2023/01/08 11:24:36;;;;;;;11.23;1.67;;;8.70;99.90;;;;;;5051450;28;20379;-82
2023/01/08 11:27:11;;;;;;;9.88;2.10;;;8.80;99.90;;;;;;5045755;28;21352;-83
2023/01/08 11:29:56;;;;;;;15.55;2.97;;;8.90;99.90;;;;;;5045590;28;20537;-83
2023/01/08 11:33:11;;;;;;;9.50;2.00;;;8.80;99.90;;;;;;5042798;28;20491;-83
2023/01/08 11:35:48;;;;;;;8.38;2.40;;;8.80;99.90;;;;;;5020766;28;20043;-82
2023/01/08 11:38:14;;;;;;;11.77;2.20;;;8.90;99.90;;;;;;5050674;28;20041;-83
2023/01/08 11:40:46;;;;;;;11.43;2.45;;;8.90;99.90;;;;;;5051129;28;20125;-84
2023/01/08 11:44:10;;;;;;;9.02;1.90;;;8.90;99.90;;;;;;5050458;28;20073;-83
2023/01/08 11:46:48;;;;;;;7.20;1.92;;;8.90;99.90;;;;;;5010368;28;20527;-84
2023/01/08 11:49:26;;;;;;;9.65;2.70;;;8.80;99.90;;;;;;5013378;28;20052;-83
2023/01/08 11:52:10;;;;;;;7.20;2.00;;;9.00;99.90;;;;;;5018514;28;20085;-84
2023/01/08 11:54:48;;;;;;;13.60;2.33;;;9.00;99.90;;;;;;5050828;28;20044;-84
2023/01/08 11:57:56;;;;;;;10.43;2.33;;;9.10;99.90;;;;;;5035552;28;20282;-83
2023/01/08 12:00:39;;;;;;;12.73;2.25;;;9.20;99.90;;;;;;5010701;28;20052;-84
2023/01/08 12:03:20;;;;;;;11.73;2.00;;;9.10;99.90;;;;;;5052896;28;20077;-82
2023/01/08 12:05:58;;;;;;;6.05;2.25;;;9.10;99.90;;;;;;5050247;28;20663;-84
2023/01/08 12:09:03;;;;;;;12.43;2.10;;;9.10;99.90;;;;;;5044796;28;20041;-84
2023/01/08 12:11:35;;;;;;;7.65;2.05;;;9.30;99.90;;;;;;5013780;28;20142;-83
2023/01/08 12:14:13;;;;;;;11.13;2.10;;;9.40;99.90;;;;;;5024686;28;20633;-83
2023/01/08 12:16:44;;;;;;;8.25;2.05;;;9.40;99.90;;;;;;5045029;28;20086;-83
2023/01/08 12:19:39;;;;;;;10.95;2.17;;;9.30;99.90;;;;;;5050739;28;20029;-84
2023/01/08 12:22:27;;;;;;;8.07;2.30;;;9.30;99.90;;;;;;5052485;28;20526;-85
2023/01/08 12:25:04;;;;;;;10.10;2.00;;;9.30;99.90;;;;;;5051080;28;20093;-84
2023/01/08 12:28:01;;;;;;;10.75;2.10;;;9.50;99.90;;;;;;5029934;28;20037;-85
2023/01/08 12:30:50;;;;;;;10.02;2.60;;;9.50;99.90;;;;;;5051650;28;20060;-84
2023/01/08 12:33:50;;;;;;;8.15;2.20;;;9.70;99.90;;;;;;5043857;28;20057;-84
2023/01/08 12:36:22;;;;;;;10.02;2.28;;;9.70;99.90;;;;;;5040256;28;20072;-84
2023/01/08 12:39:07;;;;;;;10.43;2.15;;;9.60;99.90;;;;;;5052529;28;20036;-82
2023/01/08 12:41:34;;;;;;;10.63;2.35;;;9.70;99.90;;;;;;5051482;28;20045;-81
2023/01/08 12:44:09;;;;;;;8.48;2.30;;;9.80;99.90;;;;;;5047296;28;20499;-85
2023/01/08 12:46:42;;;;;;;11.90;2.28;;;9.90;99.90;;;;;;5033265;28;20033;-83
2023/01/08 12:49:11;;;;;;;7.65;2.00;;;9.80;99.90;;;;;;5034917;28;20037;-84
2023/01/08 12:51:48;;;;;;;7.20;2.08;;;9.70;99.90;;;;;;5045848;28;20057;-84
2023/01/08 12:54:51;;;;;;;11.27;2.40;;;9.60;99.90;;;;;;5051651;28;20041;-84
2023/01/08 12:57:35;;;;;;;7.90;2.08;;;9.70;99.90;;;;;;5021494;28;20111;-85
2023/01/08 13:00:21;;;;;;;6.75;2.05;;;9.80;99.90;;;;;;5043960;28;20409;-84
2023/01/08 13:02:46;;;;;;;10.43;2.33;;;9.70;99.90;;;;;;5045384;28;20083;-85
2023/01/08 13:05:16;;;;;;;12.00;2.70;;;9.60;99.90;;;;;;5024949;28;20061;-85
2023/01/08 13:07:45;;;;;;;9.10;2.35;;;9.50;99.90;;;;;;5043829;28;20044;-84